Eaton, New York
Current Conditions -  °F | °C
As of 11:53 PM on Friday 21 Nov 2014 (Local Time) from KRME Reporting Station
Broken Clouds Broken Clouds  
Wind Chill: 14°   Ceiling: 4600
Heat Index: 23°   Visibility: 10mi
Dew Point: 15°   Wind: 8mph
Humidity: 72%   Direction: 250°WSW
Pressure: 30.42"   Gusts: NA
Location:  42.85°N, 75.61°W
Report Text: KRME 220453Z AUTO 25007KT 10SM BKN046 M05/M09 A3042 RMK AO2 SLP307 T10501094 410331067
Loading
Personal Weather Stations






























Interactive Weather Map New forecast layout! Learn more

10-Day Weather Forecast

Advertisements
Track Severe Weather on mobile